createdAt,value
2022-12-31T00:02:00.738Z,13.64
2022-12-31T00:04:30.500Z,13.54
2022-12-31T00:07:00.198Z,13.53
2022-12-31T00:09:29.872Z,13.36
2022-12-31T00:11:59.510Z,13.65
2022-12-31T00:14:29.174Z,13.62
2022-12-31T00:17:01.654Z,13.59
2022-12-31T00:19:31.327Z,13.53
2022-12-31T00:22:00.980Z,13.52
2022-12-31T00:24:31.260Z,13.35
2022-12-31T00:27:00.973Z,13.59
2022-12-31T00:29:30.656Z,13.66
2022-12-31T00:32:02.898Z,13.74
2022-12-31T00:34:32.566Z,13.75
2022-12-31T00:37:02.255Z,13.75
2022-12-31T00:39:32.012Z,13.58
2022-12-31T00:42:01.729Z,13.59
2022-12-31T00:44:31.376Z,13.51
2022-12-31T00:47:03.661Z,13.42
2022-12-31T00:49:33.302Z,13.49
2022-12-31T00:52:02.959Z,13.37
2022-12-31T00:54:32.785Z,13.33
2022-12-31T00:57:02.455Z,13.48
2022-12-31T00:59:32.108Z,13.37
2022-12-31T01:02:04.512Z,13.43
2022-12-31T01:04:34.285Z,13.42
2022-12-31T01:07:04.044Z,13.34
2022-12-31T01:09:33.705Z,12.61
2022-12-31T01:12:03.609Z,13.40
2022-12-31T01:14:33.994Z,13.45
2022-12-31T01:17:06.298Z,13.48
2022-12-31T01:19:35.958Z,13.32
2022-12-31T01:22:05.652Z,13.41
2022-12-31T01:24:35.325Z,13.56
2022-12-31T01:27:04.987Z,13.27
2022-12-31T01:29:34.965Z,13.42
2022-12-31T01:32:07.735Z,13.46
2022-12-31T01:34:37.392Z,13.44
2022-12-31T01:37:07.014Z,13.29
2022-12-31T01:39:36.635Z,13.42
2022-12-31T01:42:06.554Z,13.38
2022-12-31T01:44:53.087Z,13.52
2022-12-31T01:47:37.377Z,13.45
2022-12-31T01:50:12.887Z,13.56
2022-12-31T01:52:45.203Z,13.52
2022-12-31T01:55:20.378Z,13.61
2022-12-31T01:57:53.801Z,13.60
2022-12-31T02:00:23.624Z,13.69
2022-12-31T02:02:56.074Z,13.68
2022-12-31T02:13:15.205Z,13.29
2022-12-31T02:15:54.636Z,13.47
2022-12-31T02:18:38.873Z,13.58
2022-12-31T02:21:40.671Z,13.56
2022-12-31T02:24:39.528Z,13.50
2022-12-31T02:27:13.499Z,13.49
2022-12-31T02:30:14.199Z,13.34
2022-12-31T02:33:08.582Z,13.39
2022-12-31T02:35:47.776Z,13.41
2022-12-31T02:38:23.251Z,13.46
2022-12-31T02:40:53.215Z,13.40
2022-12-31T02:43:22.974Z,13.26
2022-12-31T02:46:07.228Z,13.46
2022-12-31T02:48:46.878Z,13.45
2022-12-31T02:51:33.916Z,13.51
2022-12-31T02:54:18.489Z,13.45
2022-12-31T02:57:01.328Z,13.43
2022-12-31T02:59:49.475Z,13.49
2022-12-31T03:02:24.243Z,13.24
2022-12-31T03:04:56.291Z,13.38
2022-12-31T03:07:29.002Z,13.50
2022-12-31T03:09:59.002Z,13.44
2022-12-31T03:12:44.182Z,13.59
2022-12-31T03:15:22.475Z,13.49
2022-12-31T03:18:03.292Z,13.84
2022-12-31T03:20:47.866Z,13.83
2022-12-31T03:23:20.581Z,13.84
2022-12-31T03:25:47.827Z,13.84
2022-12-31T03:28:19.039Z,14.05
2022-12-31T03:30:50.824Z,14.04
2022-12-31T03:33:23.718Z,14.10
2022-12-31T03:35:55.060Z,14.07
2022-12-31T03:38:24.995Z,14.09
2022-12-31T03:40:56.343Z,14.14
2022-12-31T03:43:25.911Z,14.10
2022-12-31T03:45:59.710Z,14.09
2022-12-31T03:48:32.056Z,13.70
2022-12-31T03:51:01.608Z,14.13
2022-12-31T03:53:32.167Z,13.93
2022-12-31T03:56:01.712Z,14.11
2022-12-31T03:58:31.284Z,14.05
2022-12-31T04:01:00.976Z,14.11
2022-12-31T04:03:33.272Z,14.05
2022-12-31T04:06:02.820Z,14.14
2022-12-31T04:08:32.448Z,14.20
2022-12-31T04:11:01.994Z,14.11
2022-12-31T04:13:31.538Z,14.30
2022-12-31T04:16:01.103Z,14.30
2022-12-31T04:18:33.773Z,14.39
2022-12-31T04:21:05.072Z,14.32
2022-12-31T04:23:34.753Z,14.22
2022-12-31T04:26:04.474Z,14.14
2022-12-31T04:28:34.062Z,14.07
2022-12-31T04:31:04.225Z,14.12
2022-12-31T04:33:36.420Z,14.02
2022-12-31T04:36:06.536Z,14.01
2022-12-31T04:38:36.546Z,13.82
2022-12-31T04:41:18.734Z,13.85
2022-12-31T04:43:50.888Z,13.97
2022-12-31T04:46:22.687Z,14.04
2022-12-31T04:48:54.950Z,14.03
2022-12-31T04:51:25.300Z,13.79
2022-12-31T04:53:55.313Z,14.00
2022-12-31T04:56:24.969Z,13.99
2022-12-31T04:58:54.612Z,13.93
2022-12-31T05:01:24.620Z,13.88
2022-12-31T05:03:56.851Z,13.99
2022-12-31T05:06:26.494Z,13.72
2022-12-31T05:08:56.120Z,13.99
2022-12-31T05:11:25.941Z,13.99
2022-12-31T05:13:55.510Z,13.64
2022-12-31T05:16:25.233Z,14.12
2022-12-31T05:18:57.423Z,14.16
2022-12-31T05:21:26.994Z,14.12
2022-12-31T05:23:56.580Z,14.09
2022-12-31T05:26:26.219Z,14.09
2022-12-31T05:28:56.561Z,14.07
2022-12-31T05:31:26.102Z,14.10
2022-12-31T05:33:58.361Z,14.12
2022-12-31T05:36:27.930Z,14.00
2022-12-31T05:38:57.504Z,13.92
2022-12-31T05:41:27.477Z,13.92
2022-12-31T05:43:57.031Z,13.90
2022-12-31T05:46:26.635Z,14.02
2022-12-31T05:48:58.845Z,13.77
2022-12-31T05:51:28.432Z,14.01
2022-12-31T05:53:58.027Z,13.91
2022-12-31T05:56:27.616Z,13.46
2022-12-31T05:58:57.186Z,14.04
2022-12-31T06:01:27.033Z,14.11
2022-12-31T06:03:59.248Z,14.16
2022-12-31T06:06:28.953Z,14.02
2022-12-31T06:08:58.545Z,14.19
2022-12-31T06:11:28.191Z,14.19
2022-12-31T06:13:58.341Z,13.90
2022-12-31T06:16:28.853Z,14.06
2022-12-31T06:19:01.642Z,13.85
2022-12-31T06:21:32.543Z,13.93
2022-12-31T06:24:02.358Z,13.98
2022-12-31T06:26:31.898Z,14.04
2022-12-31T06:29:01.443Z,14.10
2022-12-31T06:31:31.140Z,14.01
2022-12-31T06:34:03.338Z,14.02
2022-12-31T06:36:32.931Z,13.91
2022-12-31T06:39:02.469Z,14.12
2022-12-31T06:41:32.011Z,14.11
2022-12-31T06:44:01.590Z,13.92
2022-12-31T06:46:31.663Z,14.00
2022-12-31T06:49:03.859Z,13.83
2022-12-31T06:51:33.463Z,13.91
2022-12-31T06:54:03.071Z,13.79
2022-12-31T06:56:34.873Z,13.38
2022-12-31T06:59:05.391Z,13.66
2022-12-31T07:01:48.628Z,13.44
2022-12-31T07:04:49.464Z,13.66
2022-12-31T07:07:27.123Z,13.72
2022-12-31T07:10:04.276Z,13.76
2022-12-31T07:12:47.702Z,13.78
2022-12-31T07:15:22.840Z,13.69
2022-12-31T07:18:04.758Z,13.81
2022-12-31T07:20:37.861Z,13.71
2022-12-31T07:23:08.143Z,13.79
2022-12-31T07:25:40.986Z,13.82
2022-12-31T07:28:21.656Z,13.65
2022-12-31T07:31:05.764Z,13.86
2022-12-31T07:33:53.024Z,13.52
2022-12-31T07:36:44.269Z,13.88
2022-12-31T07:39:17.399Z,13.89
2022-12-31T07:41:57.337Z,13.94
2022-12-31T07:44:48.216Z,13.98
2022-12-31T07:47:24.386Z,13.88
2022-12-31T07:49:56.267Z,13.98
2022-12-31T07:52:29.551Z,14.00
2022-12-31T07:54:59.234Z,13.92
2022-12-31T07:57:37.201Z,14.05
2022-12-31T08:00:11.243Z,13.91
2022-12-31T08:02:59.009Z,14.06
2022-12-31T08:05:34.931Z,13.66
2022-12-31T08:08:18.571Z,13.38
2022-12-31T08:10:57.050Z,13.90
2022-12-31T08:13:27.245Z,13.73
2022-12-31T08:15:57.849Z,13.63
2022-12-31T08:18:28.348Z,13.69
2022-12-31T08:21:08.694Z,13.54
2022-12-31T08:23:51.223Z,13.62
2022-12-31T08:26:30.398Z,13.66
2022-12-31T08:29:13.639Z,13.62
2022-12-31T08:31:52.823Z,13.70
2022-12-31T08:34:32.658Z,13.61
2022-12-31T08:37:09.460Z,13.66
2022-12-31T08:39:58.447Z,13.70
2022-12-31T08:42:37.760Z,13.70
2022-12-31T08:45:19.879Z,13.72
2022-12-31T08:48:00.032Z,13.53
2022-12-31T08:50:31.170Z,13.87
2022-12-31T08:53:02.134Z,13.95
2022-12-31T08:55:36.504Z,13.84
2022-12-31T08:58:24.172Z,13.82
2022-12-31T09:00:59.857Z,13.95
2022-12-31T09:03:49.247Z,14.09
2022-12-31T09:06:26.484Z,14.25
2022-12-31T09:09:03.987Z,14.39
2022-12-31T09:11:51.024Z,14.17
2022-12-31T09:14:43.361Z,14.45
2022-12-31T09:17:32.581Z,14.37
2022-12-31T09:20:03.149Z,14.67
2022-12-31T09:22:33.434Z,14.51
2022-12-31T09:25:03.737Z,14.57
2022-12-31T09:27:43.442Z,14.64
2022-12-31T09:30:16.353Z,14.98
2022-12-31T09:33:00.800Z,15.09
2022-12-31T09:35:40.202Z,15.18
2022-12-31T09:38:19.345Z,15.17
2022-12-31T09:41:08.462Z,15.23
2022-12-31T09:44:28.718Z,15.41
2022-12-31T09:47:26.058Z,15.82
2022-12-31T09:50:23.526Z,16.31
2022-12-31T09:53:13.502Z,16.20
2022-12-31T09:55:51.319Z,15.96
2022-12-31T09:58:35.253Z,15.93
2022-12-31T10:01:16.680Z,15.85
2022-12-31T10:04:23.147Z,16.53
2022-12-31T10:07:03.064Z,16.57
2022-12-31T10:09:47.753Z,16.28
2022-12-31T10:12:34.170Z,16.37
2022-12-31T10:15:19.159Z,16.18
2022-12-31T10:18:01.183Z,16.39
2022-12-31T10:20:47.087Z,16.28
2022-12-31T10:23:49.804Z,16.07
2022-12-31T10:26:34.216Z,16.48
2022-12-31T10:29:21.836Z,16.60
2022-12-31T10:32:02.795Z,16.52
2022-12-31T10:34:45.527Z,16.64
2022-12-31T10:37:20.703Z,16.61
2022-12-31T10:40:04.767Z,16.70
2022-12-31T10:43:00.428Z,16.63
2022-12-31T10:45:59.443Z,16.97
2022-12-31T10:48:57.197Z,16.71
2022-12-31T10:51:58.843Z,16.89
2022-12-31T10:55:07.963Z,17.04
2022-12-31T10:58:09.242Z,16.90
2022-12-31T11:00:47.266Z,17.05
2022-12-31T11:03:48.565Z,16.94
2022-12-31T11:06:56.491Z,16.42
2022-12-31T11:09:52.252Z,16.19
2022-12-31T11:12:46.590Z,15.90
2022-12-31T11:15:50.205Z,15.94
2022-12-31T11:18:33.003Z,15.92
2022-12-31T11:21:24.604Z,16.02
2022-12-31T11:24:08.663Z,16.10
2022-12-31T11:26:57.566Z,15.81
2022-12-31T11:29:42.368Z,15.90
2022-12-31T11:32:29.754Z,15.84
2022-12-31T11:35:18.599Z,16.23
2022-12-31T11:37:52.035Z,16.35
2022-12-31T11:40:35.285Z,16.32
2022-12-31T11:43:22.756Z,16.44
2022-12-31T11:46:09.397Z,16.38
2022-12-31T11:48:48.334Z,15.90
2022-12-31T11:51:48.429Z,16.19
2022-12-31T11:54:53.744Z,16.27
2022-12-31T11:57:29.034Z,16.27
2022-12-31T12:00:16.788Z,16.35
2022-12-31T12:02:50.232Z,16.43
2022-12-31T12:05:24.499Z,16.55
2022-12-31T12:07:56.999Z,16.52
2022-12-31T12:10:36.092Z,16.55
2022-12-31T12:13:15.315Z,16.58
2022-12-31T12:15:51.139Z,16.62
2022-12-31T12:18:31.604Z,16.65
2022-12-31T12:21:12.433Z,16.84
2022-12-31T12:23:45.245Z,16.85
2022-12-31T12:26:30.928Z,16.76
2022-12-31T12:29:03.944Z,16.89
2022-12-31T12:31:38.087Z,16.87
2022-12-31T12:34:23.868Z,16.84
2022-12-31T12:36:53.655Z,16.76
2022-12-31T12:39:26.844Z,16.68
2022-12-31T12:42:06.187Z,16.85
2022-12-31T12:44:38.270Z,16.79
2022-12-31T12:47:16.743Z,16.94
2022-12-31T12:49:49.584Z,16.94
2022-12-31T12:52:48.753Z,16.96
2022-12-31T12:55:28.210Z,16.93
2022-12-31T12:58:17.124Z,16.70
2022-12-31T13:00:54.308Z,16.89
2022-12-31T13:04:23.316Z,16.95
2022-12-31T13:06:49.949Z,16.77
2022-12-31T13:09:31.305Z,17.12
2022-12-31T13:12:15.887Z,17.09
2022-12-31T13:14:54.677Z,17.03
2022-12-31T13:17:39.442Z,16.88
2022-12-31T13:20:21.266Z,17.16
2022-12-31T13:22:59.068Z,16.89
2022-12-31T13:25:42.347Z,17.16
2022-12-31T13:28:17.735Z,17.23
2022-12-31T13:30:52.831Z,16.41
2022-12-31T13:33:27.581Z,17.19
2022-12-31T13:36:02.852Z,17.00
2022-12-31T13:38:37.344Z,17.22
2022-12-31T13:41:13.316Z,17.35
2022-12-31T13:43:51.013Z,17.38
2022-12-31T13:46:28.766Z,17.19
2022-12-31T13:49:02.270Z,17.36
2022-12-31T13:51:44.217Z,17.17
2022-12-31T13:54:33.765Z,17.32
2022-12-31T13:57:07.595Z,17.40
2022-12-31T13:59:42.348Z,17.30
2022-12-31T14:02:29.784Z,17.25
2022-12-31T14:05:06.150Z,17.34
2022-12-31T14:07:45.872Z,17.30
2022-12-31T14:10:17.875Z,17.18
2022-12-31T14:12:56.503Z,17.23
2022-12-31T14:15:34.310Z,17.13
2022-12-31T14:18:12.733Z,17.08
2022-12-31T14:20:50.533Z,16.89
2022-12-31T14:23:31.744Z,16.94
2022-12-31T14:26:07.006Z,16.88
2022-12-31T14:28:47.024Z,16.70
2022-12-31T14:31:28.727Z,16.71
2022-12-31T14:34:06.311Z,16.70
2022-12-31T14:36:56.080Z,16.82
2022-12-31T14:39:42.829Z,16.58
2022-12-31T14:42:24.749Z,16.53
2022-12-31T14:45:07.161Z,16.58
2022-12-31T14:47:49.914Z,16.65
2022-12-31T14:50:26.467Z,16.69
2022-12-31T14:52:59.269Z,16.76
2022-12-31T14:55:33.822Z,16.69
2022-12-31T15:00:57.887Z,16.66
2022-12-31T15:03:40.112Z,16.71
2022-12-31T15:06:38.549Z,16.71
2022-12-31T15:09:21.037Z,16.81
2022-12-31T15:12:14.052Z,16.69
2022-12-31T15:15:11.004Z,16.57
2022-12-31T15:17:53.178Z,16.72
2022-12-31T15:20:39.925Z,16.50
2022-12-31T15:23:17.324Z,16.63
2022-12-31T15:25:51.619Z,16.61
2022-12-31T15:28:38.286Z,16.59
2022-12-31T15:31:20.064Z,16.68
2022-12-31T15:34:02.363Z,16.67
2022-12-31T15:36:35.816Z,16.61
2022-12-31T15:39:28.379Z,16.62
2022-12-31T15:44:57.740Z,16.44
2022-12-31T15:47:32.527Z,16.36
2022-12-31T15:50:06.546Z,16.44
2022-12-31T15:52:44.468Z,16.32
2022-12-31T15:55:25.858Z,16.40
2022-12-31T15:58:02.250Z,16.10
2022-12-31T16:00:47.495Z,16.34
2022-12-31T16:03:24.970Z,16.35
2022-12-31T16:05:57.239Z,16.27
2022-12-31T16:08:31.603Z,16.39
2022-12-31T16:11:02.869Z,15.96
2022-12-31T16:13:35.372Z,16.37
2022-12-31T16:16:20.535Z,16.46
2022-12-31T16:18:53.137Z,16.31
2022-12-31T16:21:28.748Z,16.51
2022-12-31T16:24:00.407Z,16.52
2022-12-31T16:26:36.830Z,16.38
2022-12-31T16:29:08.010Z,16.43
2022-12-31T16:31:41.458Z,16.44
2022-12-31T16:34:17.637Z,16.45
2022-12-31T16:36:58.040Z,16.34
2022-12-31T16:39:33.458Z,16.35
2022-12-31T16:42:19.056Z,16.17
2022-12-31T16:44:49.453Z,16.28
2022-12-31T16:47:26.383Z,16.14
2022-12-31T16:50:04.108Z,16.32
2022-12-31T16:52:38.699Z,16.37
2022-12-31T16:55:11.140Z,16.26
2022-12-31T16:57:41.468Z,16.16
2022-12-31T17:00:20.841Z,16.34
2022-12-31T17:03:04.302Z,16.13
2022-12-31T17:05:35.275Z,16.23
2022-12-31T17:08:25.528Z,16.21
2022-12-31T17:10:56.569Z,16.08
2022-12-31T17:13:32.198Z,16.19
2022-12-31T17:16:03.214Z,16.17
2022-12-31T17:18:40.032Z,16.19
2022-12-31T17:21:12.475Z,16.21
2022-12-31T17:23:45.440Z,16.25
2022-12-31T17:26:23.314Z,16.21
2022-12-31T17:28:55.707Z,16.21
2022-12-31T17:31:34.483Z,16.08
2022-12-31T17:34:23.863Z,15.92
2022-12-31T17:37:05.805Z,16.04
2022-12-31T17:39:46.829Z,16.16
2022-12-31T17:42:29.322Z,16.11
2022-12-31T17:45:03.658Z,16.03
2022-12-31T17:47:39.533Z,16.17
2022-12-31T17:50:21.830Z,16.16
2022-12-31T17:52:55.985Z,16.16
2022-12-31T17:55:26.167Z,16.18
2022-12-31T17:57:59.310Z,16.18
2022-12-31T18:00:29.927Z,16.21
2022-12-31T18:03:00.803Z,16.21
2022-12-31T18:05:34.189Z,16.29
2022-12-31T18:08:05.148Z,16.19
2022-12-31T18:10:39.491Z,15.87
2022-12-31T18:13:18.372Z,16.19
2022-12-31T18:15:48.701Z,16.23
2022-12-31T18:18:25.139Z,16.32
2022-12-31T18:21:01.448Z,16.27
2022-12-31T18:23:33.933Z,16.33
2022-12-31T18:26:04.714Z,16.29
2022-12-31T18:28:34.619Z,16.36
2022-12-31T18:31:06.495Z,16.33
2022-12-31T18:33:38.363Z,16.40
2022-12-31T18:36:14.694Z,16.39
2022-12-31T18:38:44.946Z,16.41
2022-12-31T18:41:20.117Z,16.33
2022-12-31T18:43:50.955Z,16.50
2022-12-31T18:46:23.174Z,16.54
2022-12-31T18:48:52.906Z,16.33
2022-12-31T18:51:32.008Z,16.49
2022-12-31T18:54:04.723Z,16.73
2022-12-31T18:56:34.824Z,16.15
2022-12-31T18:59:05.186Z,16.44
2022-12-31T19:01:37.227Z,16.37
2022-12-31T19:04:19.917Z,16.63
2022-12-31T19:06:54.727Z,16.42
2022-12-31T19:12:16.805Z,16.54
2022-12-31T19:14:46.445Z,16.53
2022-12-31T19:17:17.662Z,16.51
2022-12-31T19:19:48.432Z,16.45
2022-12-31T19:22:20.844Z,16.46
2022-12-31T19:24:51.640Z,16.19
2022-12-31T19:27:21.438Z,16.13
2022-12-31T19:29:51.115Z,16.52
2022-12-31T19:32:20.812Z,16.34
2022-12-31T19:34:50.587Z,15.71
2022-12-31T19:37:22.948Z,16.23
2022-12-31T19:39:52.721Z,16.57
2022-12-31T19:42:22.469Z,16.31
2022-12-31T19:44:52.260Z,16.12
2022-12-31T19:47:21.977Z,16.44
2022-12-31T19:49:51.669Z,16.24
2022-12-31T19:52:24.024Z,16.45
2022-12-31T19:54:54.778Z,16.43
2022-12-31T19:57:24.490Z,16.48
2022-12-31T19:59:54.202Z,16.37
2022-12-31T20:02:23.966Z,16.38
2022-12-31T20:04:53.810Z,16.38
2022-12-31T20:07:27.343Z,16.38
2022-12-31T20:09:58.187Z,16.43
2022-12-31T20:12:27.895Z,16.39
2022-12-31T20:14:57.739Z,16.39
2022-12-31T20:17:28.128Z,16.35
2022-12-31T20:19:59.102Z,16.36
2022-12-31T20:22:31.435Z,16.31
2022-12-31T20:25:01.168Z,16.24
2022-12-31T20:27:30.983Z,16.29
2022-12-31T20:30:00.678Z,16.33
2022-12-31T20:32:31.942Z,16.20
2022-12-31T20:35:03.959Z,16.12
2022-12-31T20:37:38.323Z,15.91
2022-12-31T20:40:10.537Z,16.26
2022-12-31T20:42:41.498Z,16.21
2022-12-31T20:45:13.378Z,16.21
2022-12-31T20:47:43.036Z,16.20
2022-12-31T20:50:13.722Z,16.26
2022-12-31T20:52:47.567Z,16.12
2022-12-31T20:55:18.212Z,16.20
2022-12-31T20:57:47.957Z,15.94
2022-12-31T21:00:20.925Z,16.37
2022-12-31T21:03:00.256Z,16.28
2022-12-31T21:05:36.488Z,16.23
2022-12-31T21:08:08.959Z,16.21
2022-12-31T21:10:39.676Z,16.28
2022-12-31T21:13:06.753Z,16.24
2022-12-31T21:15:38.617Z,16.07
2022-12-31T21:18:08.621Z,16.14
2022-12-31T21:20:38.517Z,16.16
2022-12-31T21:23:11.786Z,16.25
2022-12-31T21:25:42.561Z,16.19
2022-12-31T21:28:12.295Z,16.18
2022-12-31T21:30:42.724Z,16.03
2022-12-31T21:33:12.539Z,16.09
2022-12-31T21:35:48.367Z,16.20
2022-12-31T21:38:25.670Z,16.16
2022-12-31T21:40:55.657Z,16.27
2022-12-31T21:43:27.389Z,16.24
2022-12-31T21:46:03.366Z,16.35
2022-12-31T21:48:33.265Z,16.24
2022-12-31T21:51:10.011Z,16.33
2022-12-31T21:53:43.434Z,16.36
2022-12-31T21:56:14.553Z,16.47
2022-12-31T21:58:47.054Z,16.44
2022-12-31T22:01:34.793Z,16.33
2022-12-31T22:04:04.670Z,16.39
2022-12-31T22:06:36.007Z,16.37
2022-12-31T22:09:11.972Z,16.32
2022-12-31T22:11:41.747Z,16.35
2022-12-31T22:14:11.841Z,16.44
2022-12-31T22:16:41.675Z,16.41
2022-12-31T22:19:12.482Z,16.35
2022-12-31T22:21:42.192Z,16.31
2022-12-31T22:24:14.805Z,16.35
2022-12-31T22:26:46.628Z,16.39
2022-12-31T22:29:19.301Z,16.27
2022-12-31T22:31:49.022Z,16.30
2022-12-31T22:34:18.715Z,16.31
2022-12-31T22:36:48.457Z,16.42
2022-12-31T22:39:43.733Z,16.42
2022-12-31T22:42:11.724Z,16.44
2022-12-31T22:44:41.460Z,16.28
2022-12-31T22:47:11.388Z,16.40
2022-12-31T22:49:42.059Z,16.45
2022-12-31T22:52:11.700Z,16.20
2022-12-31T22:54:45.957Z,16.37
2022-12-31T22:57:20.004Z,16.11
2022-12-31T22:59:51.383Z,16.08
2022-12-31T23:02:22.118Z,16.26
2022-12-31T23:04:51.930Z,16.45
2022-12-31T23:07:25.333Z,16.48
2022-12-31T23:10:10.125Z,16.32
2022-12-31T23:12:40.846Z,16.38
2022-12-31T23:15:25.031Z,16.34
2022-12-31T23:18:07.283Z,16.31
2022-12-31T23:20:49.521Z,16.58
2022-12-31T23:23:22.347Z,16.47
2022-12-31T23:25:55.253Z,16.53
2022-12-31T23:28:27.366Z,16.38
2022-12-31T23:31:00.531Z,16.15
2022-12-31T23:33:31.261Z,16.45
2022-12-31T23:36:08.510Z,16.45
2022-12-31T23:38:39.319Z,16.28
2022-12-31T23:41:18.219Z,16.37
2022-12-31T23:43:48.259Z,16.15
2022-12-31T23:46:20.438Z,16.44
2022-12-31T23:48:53.755Z,16.40
2022-12-31T23:51:25.475Z,16.41
2022-12-31T23:53:55.138Z,16.39
2022-12-31T23:56:27.417Z,16.48
2022-12-31T23:58:57.956Z,16.33
